Wykagyl, New York
Current Conditions -  °F | °C
As of 4:56 PM on Wednesday 28 Jan 2015 (Local Time) from KHPN Reporting Station
Clear Clear  
Wind Chill: 15°   Ceiling: Unl
Heat Index: 28°   Visibility: 10mi
Dew Point:   Wind: 18mph
Humidity: 39%   Direction: 330°NNW
Pressure: 30.1"   Gusts: NA
Location:  40.95°N, 73.79°W
Report Text: KHPN 282156Z 33016KT 10SM CLR M02/M14 A3010 RMK AO2 SLP203 T10221144
Loading
Personal Weather Stations






























Interactive Weather Map New forecast layout! Learn more

10-Day Weather Forecast

Advertisements
Track Severe Weather on mobile